sensor_id;sensor_type;location;lat;lon;timestamp;pressure;altitude;pressure_sealevel;temperature;humidity
55610;BME280;41486;52.502;13.486;2023-02-14T00:01:52;103208.16;;;5.17;100.00
55610;BME280;41486;52.502;13.486;2023-02-14T00:04:20;103199.56;;;5.10;100.00
55610;BME280;41486;52.502;13.486;2023-02-14T00:06:48;103203.69;;;5.28;100.00
55610;BME280;41486;52.502;13.486;2023-02-14T00:09:17;103203.91;;;5.10;100.00
55610;BME280;41486;52.502;13.486;2023-02-14T00:11:45;103202.88;;;5.23;100.00
55610;BME280;41486;52.502;13.486;2023-02-14T00:14:14;103196.69;;;5.30;100.00
55610;BME280;41486;52.502;13.486;2023-02-14T00:17:01;103194.19;;;5.24;100.00
55610;BME280;41486;52.502;13.486;2023-02-14T00:19:29;103193.31;;;5.22;100.00
55610;BME280;41486;52.502;13.486;2023-02-14T00:22:00;103197.47;;;5.39;100.00
55610;BME280;41486;52.502;13.486;2023-02-14T00:24:28;103204.38;;;5.41;100.00
55610;BME280;41486;52.502;13.486;2023-02-14T00:26:56;103200.06;;;5.37;100.00
55610;BME280;41486;52.502;13.486;2023-02-14T00:29:26;103208.16;;;5.17;100.00
55610;BME280;41486;52.502;13.486;2023-02-14T00:31:54;103203.03;;;5.12;100.00
55610;BME280;41486;52.502;13.486;2023-02-14T00:34:24;103188.94;;;5.24;100.00
55610;BME280;41486;52.502;13.486;2023-02-14T00:36:52;103195.06;;;5.23;100.00
55610;BME280;41486;52.502;13.486;2023-02-14T00:39:20;103192.41;;;5.25;100.00
55610;BME280;41486;52.502;13.486;2023-02-14T00:41:48;103198.41;;;5.33;100.00
55610;BME280;41486;52.502;13.486;2023-02-14T00:44:16;103188.00;;;5.28;100.00
55610;BME280;41486;52.502;13.486;2023-02-14T00:46:44;103187.97;;;5.30;100.00
55610;BME280;41486;52.502;13.486;2023-02-14T00:49:12;103199.56;;;5.10;100.00
55610;BME280;41486;52.502;13.486;2023-02-14T00:51:41;103191.56;;;5.22;100.00
55610;BME280;41486;52.502;13.486;2023-02-14T00:54:09;103195.28;;;5.04;100.00
55610;BME280;41486;52.502;13.486;2023-02-14T00:56:37;103191.34;;;5.38;100.00
55610;BME280;41486;52.502;13.486;2023-02-14T00:59:08;103191.56;;;5.24;99.63
55610;BME280;41486;52.502;13.486;2023-02-14T01:01:36;103201.28;;;5.10;100.00
55610;BME280;41486;52.502;13.486;2023-02-14T01:04:04;103189.06;;;5.13;100.00
55610;BME280;41486;52.502;13.486;2023-02-14T01:06:33;103194.41;;;5.05;100.00
55610;BME280;41486;52.502;13.486;2023-02-14T01:09:03;103186.41;;;5.18;100.00
55610;BME280;41486;52.502;13.486;2023-02-14T01:11:31;103185.38;;;5.31;98.97
55610;BME280;41486;52.502;13.486;2023-02-14T01:13:59;103180.34;;;5.14;100.00
55610;BME280;41486;52.502;13.486;2023-02-14T01:16:28;103186.59;;;5.04;100.00
55610;BME280;41486;52.502;13.486;2023-02-14T01:18:57;103175.13;;;5.14;100.00
55610;BME280;41486;52.502;13.486;2023-02-14T01:21:28;103176.97;;;5.08;100.00
55610;BME280;41486;52.502;13.486;2023-02-14T01:23:57;103173.38;;;5.16;100.00
55610;BME280;41486;52.502;13.486;2023-02-14T01:26:27;103174.25;;;5.15;100.00
55610;BME280;41486;52.502;13.486;2023-02-14T01:28:56;103167.38;;;5.11;100.00
55610;BME280;41486;52.502;13.486;2023-02-14T01:31:26;103171.59;;;5.20;100.00
55610;BME280;41486;52.502;13.486;2023-02-14T01:33:56;103174.41;;;5.01;100.00
55610;BME280;41486;52.502;13.486;2023-02-14T01:36:26;103169.19;;;5.03;100.00
55610;BME280;41486;52.502;13.486;2023-02-14T01:38:56;103162.19;;;5.07;100.00
55610;BME280;41486;52.502;13.486;2023-02-14T01:41:30;103157.06;;;5.00;100.00
55610;BME280;41486;52.502;13.486;2023-02-14T01:44:00;103163.84;;;5.14;100.00
55610;BME280;41486;52.502;13.486;2023-02-14T01:46:30;103157.81;;;5.09;100.00
55610;BME280;41486;52.502;13.486;2023-02-14T01:49:02;103158.00;;;4.95;100.00
55610;BME280;41486;52.502;13.486;2023-02-14T01:51:34;103156.06;;;5.09;100.00
55610;BME280;41486;52.502;13.486;2023-02-14T01:54:05;103149.16;;;5.07;100.00
55610;BME280;41486;52.502;13.486;2023-02-14T01:56:37;103158.72;;;5.08;100.00
55610;BME280;41486;52.502;13.486;2023-02-14T01:59:09;103150.94;;;5.03;100.00
55610;BME280;41486;52.502;13.486;2023-02-14T02:01:42;103143.00;;;5.11;100.00
55610;BME280;41486;52.502;13.486;2023-02-14T02:04:13;103157.78;;;5.12;100.00
55610;BME280;41486;52.502;13.486;2023-02-14T02:06:44;103154.38;;;5.07;100.00
55610;BME280;41486;52.502;13.486;2023-02-14T02:09:17;103149.22;;;5.00;100.00
55610;BME280;41486;52.502;13.486;2023-02-14T02:11:48;103155.28;;;5.04;100.00
55610;BME280;41486;52.502;13.486;2023-02-14T02:14:20;103162.19;;;5.05;100.00
55610;BME280;41486;52.502;13.486;2023-02-14T02:16:58;103156.16;;;5.03;100.00
55610;BME280;41486;52.502;13.486;2023-02-14T02:20:04;103150.06;;;5.04;100.00
55610;BME280;41486;52.502;13.486;2023-02-14T02:23:09;103148.31;;;5.03;100.00
55610;BME280;41486;52.502;13.486;2023-02-14T02:26:15;103154.38;;;5.03;100.00
55610;BME280;41486;52.502;13.486;2023-02-14T02:35:21;103156.88;;;5.13;100.00
55610;BME280;41486;52.502;13.486;2023-02-14T02:38:02;103149.31;;;4.93;100.00
55610;BME280;41486;52.502;13.486;2023-02-14T02:40:43;103153.66;;;4.94;100.00
55610;BME280;41486;52.502;13.486;2023-02-14T02:43:24;103146.78;;;4.85;100.00
55610;BME280;41486;52.502;13.486;2023-02-14T02:46:01;103147.63;;;4.88;100.00
55610;BME280;41486;52.502;13.486;2023-02-14T02:48:54;103161.56;;;4.87;100.00
55610;BME280;41486;52.502;13.486;2023-02-14T02:51:31;103159.66;;;4.99;100.00
55610;BME280;41486;52.502;13.486;2023-02-14T02:54:22;103160.56;;;4.96;100.00
55610;BME280;41486;52.502;13.486;2023-02-14T02:56:56;103152.81;;;4.90;100.00
55610;BME280;41486;52.502;13.486;2023-02-14T02:59:27;103157.94;;;4.99;100.00
55610;BME280;41486;52.502;13.486;2023-02-14T03:02:00;103156.91;;;5.10;100.00
55610;BME280;41486;52.502;13.486;2023-02-14T03:04:31;103154.44;;;4.99;100.00
55610;BME280;41486;52.502;13.486;2023-02-14T03:07:20;103153.63;;;4.95;100.00
55610;BME280;41486;52.502;13.486;2023-02-14T03:10:11;103161.16;;;5.20;100.00
55610;BME280;41486;52.502;13.486;2023-02-14T03:13:11;103156.09;;;5.08;100.00
55610;BME280;41486;52.502;13.486;2023-02-14T03:15:51;103160.16;;;5.30;100.00
55610;BME280;41486;52.502;13.486;2023-02-14T03:18:37;103160.50;;;5.02;100.00
55610;BME280;41486;52.502;13.486;2023-02-14T03:21:14;103163.28;;;4.87;100.00
55610;BME280;41486;52.502;13.486;2023-02-14T03:23:50;103155.50;;;4.82;100.00
55610;BME280;41486;52.502;13.486;2023-02-14T03:26:25;103152.88;;;4.85;100.00
55610;BME280;41486;52.502;13.486;2023-02-14T03:29:00;103146.66;;;4.97;100.00
55610;BME280;41486;52.502;13.486;2023-02-14T03:31:35;103149.84;;;5.19;100.00
55610;BME280;41486;52.502;13.486;2023-02-14T03:34:10;103150.09;;;5.01;100.00
55610;BME280;41486;52.502;13.486;2023-02-14T03:36:45;103145.81;;;4.94;100.00
55610;BME280;41486;52.502;13.486;2023-02-14T03:39:22;103139.91;;;4.78;100.00
55610;BME280;41486;52.502;13.486;2023-02-14T03:41:57;103145.09;;;4.84;100.00
55610;BME280;41486;52.502;13.486;2023-02-14T03:44:33;103146.56;;;5.03;100.00
55610;BME280;41486;52.502;13.486;2023-02-14T03:47:06;103143.16;;;4.98;100.00
55610;BME280;41486;52.502;13.486;2023-02-14T03:49:40;103150.97;;;4.97;100.00
55610;BME280;41486;52.502;13.486;2023-02-14T03:52:11;103148.41;;;4.95;100.00
55610;BME280;41486;52.502;13.486;2023-02-14T03:54:44;103142.38;;;4.92;100.00
55610;BME280;41486;52.502;13.486;2023-02-14T03:57:18;103148.44;;;4.94;100.00
55610;BME280;41486;52.502;13.486;2023-02-14T03:59:48;103147.66;;;4.85;100.00
55610;BME280;41486;52.502;13.486;2023-02-14T04:02:19;103141.63;;;4.82;100.00
55610;BME280;41486;52.502;13.486;2023-02-14T04:04:51;103148.56;;;4.81;100.00
55610;BME280;41486;52.502;13.486;2023-02-14T04:07:21;103139.88;;;4.81;100.00
55610;BME280;41486;52.502;13.486;2023-02-14T04:09:51;103144.22;;;4.82;100.00
55610;BME280;41486;52.502;13.486;2023-02-14T04:12:19;103148.50;;;4.86;100.00
55610;BME280;41486;52.502;13.486;2023-02-14T04:15:01;103142.38;;;4.92;100.00
55610;BME280;41486;52.502;13.486;2023-02-14T04:17:29;103141.72;;;4.72;100.00
55610;BME280;41486;52.502;13.486;2023-02-14T04:20:14;103144.25;;;4.79;100.00
55610;BME280;41486;52.502;13.486;2023-02-14T04:22:42;103138.91;;;4.91;100.00
55610;BME280;41486;52.502;13.486;2023-02-14T04:25:13;103137.25;;;4.82;100.00
55610;BME280;41486;52.502;13.486;2023-02-14T04:27:41;103135.50;;;4.84;100.00
55610;BME280;41486;52.502;13.486;2023-02-14T04:30:10;103144.19;;;4.86;100.00
55610;BME280;41486;52.502;13.486;2023-02-14T04:32:38;103142.38;;;4.92;100.00
55610;BME280;41486;52.502;13.486;2023-02-14T04:35:07;103141.56;;;4.85;100.00
55610;BME280;41486;52.502;13.486;2023-02-14T04:37:35;103133.75;;;4.83;100.00
55610;BME280;41486;52.502;13.486;2023-02-14T04:40:03;103133.00;;;4.77;100.00
55610;BME280;41486;52.502;13.486;2023-02-14T04:42:33;103143.16;;;4.98;100.00
55610;BME280;41486;52.502;13.486;2023-02-14T04:45:01;103133.81;;;4.80;100.00
55610;BME280;41486;52.502;13.486;2023-02-14T04:47:30;103134.44;;;5.01;100.00
55610;BME280;41486;52.502;13.486;2023-02-14T04:49:58;103128.59;;;4.80;100.00
55610;BME280;41486;52.502;13.486;2023-02-14T04:52:26;103123.28;;;4.88;100.00
55610;BME280;41486;52.502;13.486;2023-02-14T04:54:54;103130.47;;;4.69;100.00
55610;BME280;41486;52.502;13.486;2023-02-14T04:57:22;103130.53;;;4.63;100.00
55610;BME280;41486;52.502;13.486;2023-02-14T04:59:51;103125.34;;;4.60;100.00
55610;BME280;41486;52.502;13.486;2023-02-14T05:02:19;103122.66;;;4.66;100.00
55610;BME280;41486;52.502;13.486;2023-02-14T05:04:47;103114.75;;;4.73;100.00
55610;BME280;41486;52.502;13.486;2023-02-14T05:07:15;103114.72;;;4.78;100.00
55610;BME280;41486;52.502;13.486;2023-02-14T05:09:43;103123.56;;;4.63;100.00
55610;BME280;41486;52.502;13.486;2023-02-14T05:12:11;103123.44;;;4.74;100.00
55610;BME280;41486;52.502;13.486;2023-02-14T05:14:39;103114.78;;;4.72;100.00
55610;BME280;41486;52.502;13.486;2023-02-14T05:17:08;103122.75;;;4.60;100.00
55610;BME280;41486;52.502;13.486;2023-02-14T05:19:36;103122.72;;;4.61;100.00
55610;BME280;41486;52.502;13.486;2023-02-14T05:22:04;103111.28;;;4.71;100.00
55610;BME280;41486;52.502;13.486;2023-02-14T05:24:32;103111.28;;;4.74;100.00
55610;BME280;41486;52.502;13.486;2023-02-14T05:27:00;103108.69;;;4.71;100.00
55610;BME280;41486;52.502;13.486;2023-02-14T05:29:28;103110.50;;;4.65;100.00
55610;BME280;41486;52.502;13.486;2023-02-14T05:31:56;103107.75;;;4.77;100.00
55610;BME280;41486;52.502;13.486;2023-02-14T05:34:26;103113.88;;;4.73;100.00
55610;BME280;41486;52.502;13.486;2023-02-14T05:36:54;103107.81;;;4.72;100.00
55610;BME280;41486;52.502;13.486;2023-02-14T05:39:23;103110.44;;;4.69;100.00
55610;BME280;41486;52.502;13.486;2023-02-14T05:41:51;103102.69;;;4.63;100.00
55610;BME280;41486;52.502;13.486;2023-02-14T05:44:19;103109.72;;;4.58;100.00
55610;BME280;41486;52.502;13.486;2023-02-14T05:46:47;103117.56;;;4.58;100.00
55610;BME280;41486;52.502;13.486;2023-02-14T05:49:15;103093.13;;;4.65;100.00
55610;BME280;41486;52.502;13.486;2023-02-14T05:51:44;103109.81;;;4.52;100.00
55610;BME280;41486;52.502;13.486;2023-02-14T05:54:12;103109.75;;;4.56;100.00
55610;BME280;41486;52.502;13.486;2023-02-14T05:56:40;103100.88;;;4.70;100.00
55610;BME280;41486;52.502;13.486;2023-02-14T05:59:08;103100.00;;;4.69;100.00
55610;BME280;41486;52.502;13.486;2023-02-14T06:01:36;103107.00;;;4.67;100.00
55610;BME280;41486;52.502;13.486;2023-02-14T06:04:04;103104.38;;;4.69;100.00
55610;BME280;41486;52.502;13.486;2023-02-14T06:06:32;103103.56;;;4.65;100.00
55610;BME280;41486;52.502;13.486;2023-02-14T06:09:03;103107.81;;;4.72;100.00
55610;BME280;41486;52.502;13.486;2023-02-14T06:11:31;103108.66;;;4.74;100.00
55610;BME280;41486;52.502;13.486;2023-02-14T06:13:59;103108.59;;;4.78;100.00
55610;BME280;41486;52.502;13.486;2023-02-14T06:16:27;103113.81;;;4.81;100.00
55610;BME280;41486;52.502;13.486;2023-02-14T06:18:55;103104.25;;;4.80;100.00
55610;BME280;41486;52.502;13.486;2023-02-14T06:21:23;103112.03;;;4.81;100.00
55610;BME280;41486;52.502;13.486;2023-02-14T06:23:51;103110.34;;;4.80;100.00
55610;BME280;41486;52.502;13.486;2023-02-14T06:26:20;103110.19;;;4.89;100.00
55610;BME280;41486;52.502;13.486;2023-02-14T06:28:51;103111.28;;;4.74;100.00
55610;BME280;41486;52.502;13.486;2023-02-14T06:31:20;103114.66;;;4.81;100.00
55610;BME280;41486;52.502;13.486;2023-02-14T06:33:48;103107.69;;;4.83;100.00
55610;BME280;41486;52.502;13.486;2023-02-14T06:36:17;103111.91;;;4.94;100.00
55610;BME280;41486;52.502;13.486;2023-02-14T06:38:45;103112.75;;;4.96;100.00
55610;BME280;41486;52.502;13.486;2023-02-14T06:41:15;103117.97;;;4.94;100.00
55610;BME280;41486;52.502;13.486;2023-02-14T06:43:45;103118.81;;;4.96;100.00
55610;BME280;41486;52.502;13.486;2023-02-14T06:46:15;103111.81;;;5.00;100.00
55610;BME280;41486;52.502;13.486;2023-02-14T06:48:43;103118.63;;;5.12;100.00
55610;BME280;41486;52.502;13.486;2023-02-14T06:51:12;103116.94;;;5.08;100.00
55610;BME280;41486;52.502;13.486;2023-02-14T06:53:40;103113.47;;;5.09;100.00
55610;BME280;41486;52.502;13.486;2023-02-14T06:56:08;103104.72;;;5.10;100.00
55610;BME280;41486;52.502;13.486;2023-02-14T06:58:36;103110.56;;;5.27;99.47
55610;BME280;41486;52.502;13.486;2023-02-14T07:01:05;103107.16;;;5.22;99.46
55610;BME280;41486;52.502;13.486;2023-02-14T07:03:33;103115.88;;;5.21;98.75
55610;BME280;41486;52.502;13.486;2023-02-14T07:06:01;103111.59;;;5.15;98.80
55610;BME280;41486;52.502;13.486;2023-02-14T07:08:29;103107.97;;;5.29;97.98
55610;BME280;41486;52.502;13.486;2023-02-14T07:10:57;103102.56;;;5.40;97.91
55610;BME280;41486;52.502;13.486;2023-02-14T07:13:26;103101.84;;;5.28;98.39
55610;BME280;41486;52.502;13.486;2023-02-14T07:15:54;103107.78;;;5.38;97.94
55610;BME280;41486;52.502;13.486;2023-02-14T07:18:23;103105.41;;;5.22;98.64
55610;BME280;41486;52.502;13.486;2023-02-14T07:20:51;103106.34;;;5.17;99.18
55610;BME280;41486;52.502;13.486;2023-02-14T07:23:19;103111.75;;;5.04;100.00
55610;BME280;41486;52.502;13.486;2023-02-14T07:25:47;103105.44;;;5.21;100.00
55610;BME280;41486;52.502;13.486;2023-02-14T07:28:15;103113.50;;;5.05;100.00
55610;BME280;41486;52.502;13.486;2023-02-14T07:30:43;103116.94;;;5.08;100.00
55610;BME280;41486;52.502;13.486;2023-02-14T07:33:11;103110.91;;;5.04;100.00
55610;BME280;41486;52.502;13.486;2023-02-14T07:35:41;103119.47;;;5.14;100.00
55610;BME280;41486;52.502;13.486;2023-02-14T07:38:08;103117.75;;;5.10;100.00
55610;BME280;41486;52.502;13.486;2023-02-14T07:40:36;103116.94;;;5.08;100.00
55610;BME280;41486;52.502;13.486;2023-02-14T07:43:07;103116.06;;;5.07;100.00
55610;BME280;41486;52.502;13.486;2023-02-14T07:45:44;103115.22;;;5.07;100.00
55610;BME280;41486;52.502;13.486;2023-02-14T07:48:12;103114.34;;;5.08;100.00
55610;BME280;41486;52.502;13.486;2023-02-14T07:50:42;103110.69;;;5.18;100.00
55610;BME280;41486;52.502;13.486;2023-02-14T07:53:11;103110.69;;;5.18;99.91
55610;BME280;41486;52.502;13.486;2023-02-14T07:55:39;103111.56;;;5.18;100.00
55610;BME280;41486;52.502;13.486;2023-02-14T07:58:07;103110.59;;;5.26;99.69
55610;BME280;41486;52.502;13.486;2023-02-14T08:00:35;103108.09;;;5.18;99.90
55610;BME280;41486;52.502;13.486;2023-02-14T08:03:03;103101.94;;;5.22;100.00
55610;BME280;41486;52.502;13.486;2023-02-14T08:05:31;103113.94;;;5.35;100.00
55610;BME280;41486;52.502;13.486;2023-02-14T08:08:01;103114.78;;;5.37;100.00
55610;BME280;41486;52.502;13.486;2023-02-14T08:10:29;103110.84;;;5.66;98.93
55610;BME280;41486;52.502;13.486;2023-02-14T08:12:56;103114.09;;;5.81;98.86
55610;BME280;41486;52.502;13.486;2023-02-14T08:15:29;103120.31;;;5.74;98.69
55610;BME280;41486;52.502;13.486;2023-02-14T08:18:15;103125.78;;;5.58;98.96
55610;BME280;41486;52.502;13.486;2023-02-14T08:20:44;103132.84;;;5.53;99.23
55610;BME280;41486;52.502;13.486;2023-02-14T08:23:16;103126.75;;;5.52;99.33
55610;BME280;41486;52.502;13.486;2023-02-14T08:25:44;103125.84;;;5.55;99.95
55610;BME280;41486;52.502;13.486;2023-02-14T08:28:12;103131.00;;;5.58;100.00
55610;BME280;41486;52.502;13.486;2023-02-14T08:30:42;103136.97;;;5.66;99.63
55610;BME280;41486;52.502;13.486;2023-02-14T08:33:10;103144.16;;;5.52;100.00
55610;BME280;41486;52.502;13.486;2023-02-14T08:35:47;103140.56;;;5.61;100.00
55610;BME280;41486;52.502;13.486;2023-02-14T08:38:17;103145.53;;;5.78;99.23
55610;BME280;41486;52.502;13.486;2023-02-14T08:40:45;103140.50;;;5.64;99.45
55610;BME280;41486;52.502;13.486;2023-02-14T08:43:13;103152.66;;;5.68;99.59
55610;BME280;41486;52.502;13.486;2023-02-14T08:45:42;103140.97;;;5.91;99.22
55610;BME280;41486;52.502;13.486;2023-02-14T08:48:11;103149.38;;;5.52;98.64
55610;BME280;41486;52.502;13.486;2023-02-14T08:50:39;103147.66;;;5.51;99.51
55610;BME280;41486;52.502;13.486;2023-02-14T08:53:08;103153.84;;;5.44;99.93
55610;BME280;41486;52.502;13.486;2023-02-14T08:55:39;103157.13;;;5.60;100.00
55610;BME280;41486;52.502;13.486;2023-02-14T08:58:07;103149.13;;;5.69;100.00
55610;BME280;41486;52.502;13.486;2023-02-14T09:00:35;103151.53;;;5.83;99.75
55610;BME280;41486;52.502;13.486;2023-02-14T09:03:03;103147.28;;;5.76;99.35
55610;BME280;41486;52.502;13.486;2023-02-14T09:05:32;103145.44;;;5.82;100.00
55610;BME280;41486;52.502;13.486;2023-02-14T09:08:01;103143.69;;;5.83;98.87
55610;BME280;41486;52.502;13.486;2023-02-14T09:10:29;103153.16;;;5.92;98.57
55610;BME280;41486;52.502;13.486;2023-02-14T09:12:59;103149.59;;;5.94;97.86
55610;BME280;41486;52.502;13.486;2023-02-14T09:15:27;103153.09;;;5.93;97.96
55610;BME280;41486;52.502;13.486;2023-02-14T09:17:55;103152.16;;;6.00;97.62
55610;BME280;41486;52.502;13.486;2023-02-14T09:20:26;103165.22;;;6.00;97.31
55610;BME280;41486;52.502;13.486;2023-02-14T09:22:54;103159.94;;;6.04;97.67
55610;BME280;41486;52.502;13.486;2023-02-14T09:25:22;103153.88;;;6.02;97.34
55610;BME280;41486;52.502;13.486;2023-02-14T09:27:50;103153.84;;;6.05;97.49
55610;BME280;41486;52.502;13.486;2023-02-14T09:30:23;103153.56;;;6.20;97.48
55610;BME280;41486;52.502;13.486;2023-02-14T09:32:52;103152.00;;;6.10;96.69
55610;BME280;41486;52.502;13.486;2023-02-14T09:35:20;103153.69;;;6.12;96.96
55610;BME280;41486;52.502;13.486;2023-02-14T09:37:48;103148.81;;;5.89;98.08
55610;BME280;41486;52.502;13.486;2023-02-14T09:40:33;103152.59;;;5.69;98.99
55610;BME280;41486;52.502;13.486;2023-02-14T09:43:06;103153.88;;;5.98;99.61
55610;BME280;41486;52.502;13.486;2023-02-14T09:45:39;103156.44;;;6.03;99.09
55610;BME280;41486;52.502;13.486;2023-02-14T09:48:11;103149.06;;;6.27;97.44
55610;BME280;41486;52.502;13.486;2023-02-14T09:50:46;103151.81;;;6.21;96.41
55610;BME280;41486;52.502;13.486;2023-02-14T09:53:21;103160.03;;;5.96;98.69
55610;BME280;41486;52.502;13.486;2023-02-14T09:55:57;103160.47;;;6.24;98.06
55610;BME280;41486;52.502;13.486;2023-02-14T09:58:32;103156.31;;;6.12;97.63
55610;BME280;41486;52.502;13.486;2023-02-14T10:01:10;103162.38;;;6.14;96.76
55610;BME280;41486;52.502;13.486;2023-02-14T10:03:53;103154.81;;;5.96;98.67
55610;BME280;41486;52.502;13.486;2023-02-14T10:06:39;103157.69;;;6.34;96.29
55610;BME280;41486;52.502;13.486;2023-02-14T10:09:19;103154.75;;;6.51;94.11
55610;BME280;41486;52.502;13.486;2023-02-14T10:11:49;103152.34;;;6.40;93.90
55610;BME280;41486;52.502;13.486;2023-02-14T10:14:22;103156.72;;;6.38;93.73
55610;BME280;41486;52.502;13.486;2023-02-14T10:17:35;103155.63;;;6.50;94.11
55610;BME280;41486;52.502;13.486;2023-02-14T10:20:15;103150.16;;;6.15;94.39
55610;BME280;41486;52.502;13.486;2023-02-14T10:22:50;103152.50;;;6.30;95.77
55610;BME280;41486;52.502;13.486;2023-02-14T10:25:23;103150.59;;;6.39;94.99
55610;BME280;41486;52.502;13.486;2023-02-14T10:27:55;103145.31;;;6.42;94.21
55610;BME280;41486;52.502;13.486;2023-02-14T10:30:25;103151.09;;;6.59;93.08
55610;BME280;41486;52.502;13.486;2023-02-14T10:33:01;103145.28;;;6.43;93.83
55610;BME280;41486;52.502;13.486;2023-02-14T10:35:37;103149.22;;;6.66;92.91
55610;BME280;41486;52.502;13.486;2023-02-14T10:38:17;103143.16;;;6.64;93.60
55610;BME280;41486;52.502;13.486;2023-02-14T10:41:01;103142.53;;;6.51;93.08
55610;BME280;41486;52.502;13.486;2023-02-14T10:43:36;103135.38;;;6.61;93.50
55610;BME280;41486;52.502;13.486;2023-02-14T10:46:14;103135.28;;;6.66;93.53
55610;BME280;41486;52.502;13.486;2023-02-14T10:48:53;103139.53;;;6.70;92.44
55610;BME280;41486;52.502;13.486;2023-02-14T10:51:29;103138.78;;;6.65;92.25
55610;BME280;41486;52.502;13.486;2023-02-14T10:54:15;103136.72;;;6.35;92.59
55610;BME280;41486;52.502;13.486;2023-02-14T10:56:48;103138.25;;;6.47;93.48
55610;BME280;41486;52.502;13.486;2023-02-14T10:59:24;103140.84;;;6.47;92.85
55610;BME280;41486;52.502;13.486;2023-02-14T11:01:55;103135.75;;;6.41;91.98
55610;BME280;41486;52.502;13.486;2023-02-14T11:04:24;103131.47;;;6.37;92.36
55610;BME280;41486;52.502;13.486;2023-02-14T11:06:52;103130.34;;;6.50;92.92
55610;BME280;41486;52.502;13.486;2023-02-14T11:09:21;103134.75;;;6.48;92.55
55610;BME280;41486;52.502;13.486;2023-02-14T11:11:50;103131.28;;;6.46;92.86
55610;BME280;41486;52.502;13.486;2023-02-14T11:14:25;103126.06;;;6.46;93.16
55610;BME280;41486;52.502;13.486;2023-02-14T11:16:54;103125.16;;;6.47;92.19
55610;BME280;41486;52.502;13.486;2023-02-14T11:19:26;103127.69;;;6.52;92.21
55610;BME280;41486;52.502;13.486;2023-02-14T11:21:55;103124.25;;;6.50;92.30
55610;BME280;41486;52.502;13.486;2023-02-14T11:24:29;103126.91;;;6.48;92.00
55610;BME280;41486;52.502;13.486;2023-02-14T11:26:58;103126.25;;;6.37;91.73
55610;BME280;41486;52.502;13.486;2023-02-14T11:29:29;103122.63;;;6.44;92.32
55610;BME280;41486;52.502;13.486;2023-02-14T11:32:06;103122.19;;;6.66;91.99
55610;BME280;41486;52.502;13.486;2023-02-14T11:34:38;103118.56;;;6.73;91.03
55610;BME280;41486;52.502;13.486;2023-02-14T11:37:18;103119.44;;;6.72;92.11
55610;BME280;41486;52.502;13.486;2023-02-14T11:39:53;103105.66;;;6.63;90.92
55610;BME280;41486;52.502;13.486;2023-02-14T11:42:33;103113.38;;;6.70;92.02
55610;BME280;41486;52.502;13.486;2023-02-14T11:45:03;103102.81;;;6.74;91.29
55610;BME280;41486;52.502;13.486;2023-02-14T11:47:34;103112.50;;;6.71;90.33
55610;BME280;41486;52.502;13.486;2023-02-14T11:50:20;103102.91;;;6.71;90.42
55610;BME280;41486;52.502;13.486;2023-02-14T11:52:50;103109.91;;;6.69;90.39
55610;BME280;41486;52.502;13.486;2023-02-14T11:55:25;103115.53;;;6.93;89.70
55610;BME280;41486;52.502;13.486;2023-02-14T11:57:53;103102.81;;;6.76;89.99
55610;BME280;41486;52.502;13.486;2023-02-14T12:00:23;103098.41;;;6.76;90.09
55610;BME280;41486;52.502;13.486;2023-02-14T12:02:53;103101.00;;;6.78;90.05
55610;BME280;41486;52.502;13.486;2023-02-14T12:05:27;103099.06;;;6.88;88.23
55610;BME280;41486;52.502;13.486;2023-02-14T12:07:56;103097.75;;;6.67;90.08
55610;BME280;41486;52.502;13.486;2023-02-14T12:10:27;103092.53;;;6.67;90.26
55610;BME280;41486;52.502;13.486;2023-02-14T12:12:58;103083.88;;;6.61;89.44
55610;BME280;41486;52.502;13.486;2023-02-14T12:15:31;103090.44;;;6.39;89.64
55610;BME280;41486;52.502;13.486;2023-02-14T12:18:24;103083.13;;;6.97;87.53
55610;BME280;41486;52.502;13.486;2023-02-14T12:20:59;103076.69;;;6.73;89.21
55610;BME280;41486;52.502;13.486;2023-02-14T12:23:35;103065.81;;;6.51;89.47
55610;BME280;41486;52.502;13.486;2023-02-14T12:26:14;103068.31;;;6.55;89.51
55610;BME280;41486;52.502;13.486;2023-02-14T12:28:49;103066.03;;;6.82;90.22
55610;BME280;41486;52.502;13.486;2023-02-14T12:31:17;103061.69;;;6.81;89.80
55610;BME280;41486;52.502;13.486;2023-02-14T12:33:46;103058.34;;;6.74;89.49
55610;BME280;41486;52.502;13.486;2023-02-14T12:36:37;103049.25;;;6.91;89.77
55610;BME280;41486;52.502;13.486;2023-02-14T12:39:11;103046.03;;;6.78;89.30
55610;BME280;41486;52.502;13.486;2023-02-14T12:41:49;103042.22;;;6.54;90.31
55610;BME280;41486;52.502;13.486;2023-02-14T12:44:25;103039.78;;;6.85;90.29
55610;BME280;41486;52.502;13.486;2023-02-14T12:47:25;103038.03;;;6.86;89.97
55610;BME280;41486;52.502;13.486;2023-02-14T12:50:27;103038.97;;;6.83;89.16
55610;BME280;41486;52.502;13.486;2023-02-14T12:53:29;103027.38;;;6.93;90.88
55610;BME280;41486;52.502;13.486;2023-02-14T12:56:08;103023.97;;;6.91;89.57
55610;BME280;41486;52.502;13.486;2023-02-14T12:58:54;103025.88;;;6.83;89.28
55610;BME280;41486;52.502;13.486;2023-02-14T13:01:37;103021.44;;;6.87;88.97
55610;BME280;41486;52.502;13.486;2023-02-14T13:07:02;103010.53;;;6.25;91.98
55610;BME280;41486;52.502;13.486;2023-02-14T13:09:43;103009.34;;;6.40;92.13
55610;BME280;41486;52.502;13.486;2023-02-14T13:12:24;103014.59;;;6.81;91.36
55610;BME280;41486;52.502;13.486;2023-02-14T13:15:12;103003.22;;;6.82;90.73
55610;BME280;41486;52.502;13.486;2023-02-14T13:17:47;103006.63;;;6.86;89.91
55610;BME280;41486;52.502;13.486;2023-02-14T13:20:39;103010.31;;;6.77;89.93
55610;BME280;41486;52.502;13.486;2023-02-14T13:23:13;103011.31;;;6.70;88.08